sensor_id;sensor_type;location;lat;lon;timestamp;P1;durP1;ratioP1;P2;durP2;ratioP2
52102;SDS011;38101;53.126;6.878;2023-05-14T00:00:13;10.75;;;7.28;;
52102;SDS011;38101;53.126;6.878;2023-05-14T00:02:40;9.35;;;5.45;;
52102;SDS011;38101;53.126;6.878;2023-05-14T00:05:06;8.57;;;5.50;;
52102;SDS011;38101;53.126;6.878;2023-05-14T00:07:32;9.27;;;5.97;;
52102;SDS011;38101;53.126;6.878;2023-05-14T00:09:58;8.43;;;5.97;;
52102;SDS011;38101;53.126;6.878;2023-05-14T00:12:24;10.43;;;6.68;;
52102;SDS011;38101;53.126;6.878;2023-05-14T00:14:51;9.80;;;6.05;;
52102;SDS011;38101;53.126;6.878;2023-05-14T00:17:17;11.10;;;5.50;;
52102;SDS011;38101;53.126;6.878;2023-05-14T00:19:43;10.95;;;6.80;;
52102;SDS011;38101;53.126;6.878;2023-05-14T00:22:09;7.85;;;5.53;;
52102;SDS011;38101;53.126;6.878;2023-05-14T00:24:35;8.75;;;6.13;;
52102;SDS011;38101;53.126;6.878;2023-05-14T00:27:01;8.98;;;5.63;;
52102;SDS011;38101;53.126;6.878;2023-05-14T00:29:28;8.57;;;6.03;;
52102;SDS011;38101;53.126;6.878;2023-05-14T00:31:53;11.68;;;6.38;;
52102;SDS011;38101;53.126;6.878;2023-05-14T00:34:19;7.10;;;5.40;;
52102;SDS011;38101;53.126;6.878;2023-05-14T00:36:45;8.40;;;6.07;;
52102;SDS011;38101;53.126;6.878;2023-05-14T00:39:11;9.60;;;5.47;;
52102;SDS011;38101;53.126;6.878;2023-05-14T00:41:37;7.28;;;5.53;;
52102;SDS011;38101;53.126;6.878;2023-05-14T00:44:03;7.78;;;6.10;;
52102;SDS011;38101;53.126;6.878;2023-05-14T00:46:29;9.85;;;5.90;;
52102;SDS011;38101;53.126;6.878;2023-05-14T00:48:55;7.30;;;6.25;;
52102;SDS011;38101;53.126;6.878;2023-05-14T00:51:22;7.95;;;5.85;;
52102;SDS011;38101;53.126;6.878;2023-05-14T00:53:48;10.10;;;5.93;;
52102;SDS011;38101;53.126;6.878;2023-05-14T00:56:14;9.90;;;5.78;;
52102;SDS011;38101;53.126;6.878;2023-05-14T00:58:41;11.90;;;6.55;;
52102;SDS011;38101;53.126;6.878;2023-05-14T01:01:07;10.13;;;5.78;;
52102;SDS011;38101;53.126;6.878;2023-05-14T01:03:33;7.70;;;5.80;;
52102;SDS011;38101;53.126;6.878;2023-05-14T01:06:13;11.30;;;6.05;;
52102;SDS011;38101;53.126;6.878;2023-05-14T01:09:04;7.97;;;5.60;;
52102;SDS011;38101;53.126;6.878;2023-05-14T01:11:38;8.85;;;6.22;;
52102;SDS011;38101;53.126;6.878;2023-05-14T01:14:25;8.60;;;6.10;;
52102;SDS011;38101;53.126;6.878;2023-05-14T01:17:11;9.07;;;6.25;;
52102;SDS011;38101;53.126;6.878;2023-05-14T01:19:41;8.52;;;5.80;;
52102;SDS011;38101;53.126;6.878;2023-05-14T01:22:08;9.07;;;6.13;;
52102;SDS011;38101;53.126;6.878;2023-05-14T01:24:34;8.38;;;6.00;;
52102;SDS011;38101;53.126;6.878;2023-05-14T01:27:03;8.13;;;6.75;;
52102;SDS011;38101;53.126;6.878;2023-05-14T01:29:37;8.18;;;6.22;;
52102;SDS011;38101;53.126;6.878;2023-05-14T01:32:07;8.55;;;6.22;;
52102;SDS011;38101;53.126;6.878;2023-05-14T01:34:35;9.43;;;7.13;;
52102;SDS011;38101;53.126;6.878;2023-05-14T01:37:01;8.70;;;6.15;;
52102;SDS011;38101;53.126;6.878;2023-05-14T01:39:29;10.10;;;6.82;;
52102;SDS011;38101;53.126;6.878;2023-05-14T01:41:56;9.43;;;6.57;;
52102;SDS011;38101;53.126;6.878;2023-05-14T01:44:23;10.88;;;6.20;;
52102;SDS011;38101;53.126;6.878;2023-05-14T01:46:49;10.80;;;6.65;;
52102;SDS011;38101;53.126;6.878;2023-05-14T01:49:15;9.32;;;6.65;;
52102;SDS011;38101;53.126;6.878;2023-05-14T01:51:42;10.43;;;6.70;;
52102;SDS011;38101;53.126;6.878;2023-05-14T01:54:07;8.95;;;6.60;;
52102;SDS011;38101;53.126;6.878;2023-05-14T01:56:33;9.43;;;6.75;;
52102;SDS011;38101;53.126;6.878;2023-05-14T01:58:59;9.85;;;6.43;;
52102;SDS011;38101;53.126;6.878;2023-05-14T02:01:25;8.85;;;6.60;;
52102;SDS011;38101;53.126;6.878;2023-05-14T02:03:50;9.75;;;6.68;;
52102;SDS011;38101;53.126;6.878;2023-05-14T02:06:16;11.27;;;6.72;;
52102;SDS011;38101;53.126;6.878;2023-05-14T02:08:42;9.20;;;6.03;;
52102;SDS011;38101;53.126;6.878;2023-05-14T02:11:07;9.02;;;6.40;;
52102;SDS011;38101;53.126;6.878;2023-05-14T02:13:33;9.43;;;6.88;;
52102;SDS011;38101;53.126;6.878;2023-05-14T02:15:59;9.35;;;6.82;;
52102;SDS011;38101;53.126;6.878;2023-05-14T02:18:25;7.95;;;6.72;;
52102;SDS011;38101;53.126;6.878;2023-05-14T02:20:51;8.50;;;6.45;;
52102;SDS011;38101;53.126;6.878;2023-05-14T02:23:16;9.85;;;6.72;;
52102;SDS011;38101;53.126;6.878;2023-05-14T02:25:43;10.80;;;7.25;;
52102;SDS011;38101;53.126;6.878;2023-05-14T02:28:08;12.10;;;6.60;;
52102;SDS011;38101;53.126;6.878;2023-05-14T02:30:34;9.90;;;6.53;;
52102;SDS011;38101;53.126;6.878;2023-05-14T02:33:00;10.27;;;6.63;;
52102;SDS011;38101;53.126;6.878;2023-05-14T02:35:25;9.15;;;6.15;;
52102;SDS011;38101;53.126;6.878;2023-05-14T02:37:51;11.90;;;6.72;;
52102;SDS011;38101;53.126;6.878;2023-05-14T02:40:17;11.05;;;7.03;;
52102;SDS011;38101;53.126;6.878;2023-05-14T02:42:42;13.60;;;7.28;;
52102;SDS011;38101;53.126;6.878;2023-05-14T02:45:09;11.90;;;6.90;;
52102;SDS011;38101;53.126;6.878;2023-05-14T02:47:34;12.13;;;7.30;;
52102;SDS011;38101;53.126;6.878;2023-05-14T02:50:00;9.95;;;6.70;;
52102;SDS011;38101;53.126;6.878;2023-05-14T02:52:26;11.98;;;6.72;;
52102;SDS011;38101;53.126;6.878;2023-05-14T02:54:51;10.65;;;6.72;;
52102;SDS011;38101;53.126;6.878;2023-05-14T02:57:17;10.20;;;6.72;;
52102;SDS011;38101;53.126;6.878;2023-05-14T02:59:43;11.18;;;7.25;;
52102;SDS011;38101;53.126;6.878;2023-05-14T03:02:08;9.43;;;6.80;;
52102;SDS011;38101;53.126;6.878;2023-05-14T03:04:34;8.70;;;7.07;;
52102;SDS011;38101;53.126;6.878;2023-05-14T03:07:00;11.38;;;7.30;;
52102;SDS011;38101;53.126;6.878;2023-05-14T03:09:25;9.95;;;7.18;;
52102;SDS011;38101;53.126;6.878;2023-05-14T03:11:51;12.52;;;6.88;;
52102;SDS011;38101;53.126;6.878;2023-05-14T03:14:16;10.60;;;7.38;;
52102;SDS011;38101;53.126;6.878;2023-05-14T03:16:42;14.45;;;7.20;;
52102;SDS011;38101;53.126;6.878;2023-05-14T03:19:08;9.70;;;6.70;;
52102;SDS011;38101;53.126;6.878;2023-05-14T03:21:33;9.88;;;7.00;;
52102;SDS011;38101;53.126;6.878;2023-05-14T03:23:59;10.35;;;7.10;;
52102;SDS011;38101;53.126;6.878;2023-05-14T03:26:25;11.10;;;7.25;;
52102;SDS011;38101;53.126;6.878;2023-05-14T03:28:51;13.05;;;7.07;;
52102;SDS011;38101;53.126;6.878;2023-05-14T03:31:16;9.60;;;7.10;;
52102;SDS011;38101;53.126;6.878;2023-05-14T03:33:42;10.07;;;6.78;;
52102;SDS011;38101;53.126;6.878;2023-05-14T03:36:08;11.75;;;7.53;;
52102;SDS011;38101;53.126;6.878;2023-05-14T03:38:34;9.98;;;7.32;;
52102;SDS011;38101;53.126;6.878;2023-05-14T03:40:59;12.35;;;6.85;;
52102;SDS011;38101;53.126;6.878;2023-05-14T03:43:25;12.50;;;7.25;;
52102;SDS011;38101;53.126;6.878;2023-05-14T03:45:50;11.00;;;7.38;;
52102;SDS011;38101;53.126;6.878;2023-05-14T03:48:17;13.02;;;7.50;;
52102;SDS011;38101;53.126;6.878;2023-05-14T03:50:43;10.88;;;7.25;;
52102;SDS011;38101;53.126;6.878;2023-05-14T03:53:09;10.43;;;7.57;;
52102;SDS011;38101;53.126;6.878;2023-05-14T03:55:35;12.60;;;7.43;;
52102;SDS011;38101;53.126;6.878;2023-05-14T03:58:00;12.77;;;7.63;;
52102;SDS011;38101;53.126;6.878;2023-05-14T04:00:27;13.20;;;7.38;;
52102;SDS011;38101;53.126;6.878;2023-05-14T04:02:53;9.75;;;7.25;;
52102;SDS011;38101;53.126;6.878;2023-05-14T04:05:19;9.02;;;7.35;;
52102;SDS011;38101;53.126;6.878;2023-05-14T04:07:44;9.77;;;7.15;;
52102;SDS011;38101;53.126;6.878;2023-05-14T04:10:11;7.95;;;6.63;;
52102;SDS011;38101;53.126;6.878;2023-05-14T04:12:37;13.13;;;7.40;;
52102;SDS011;38101;53.126;6.878;2023-05-14T04:15:03;11.57;;;7.07;;
52102;SDS011;38101;53.126;6.878;2023-05-14T04:17:29;9.38;;;6.70;;
52102;SDS011;38101;53.126;6.878;2023-05-14T04:19:55;8.80;;;6.75;;
52102;SDS011;38101;53.126;6.878;2023-05-14T04:22:20;10.18;;;6.43;;
52102;SDS011;38101;53.126;6.878;2023-05-14T04:24:46;10.10;;;6.95;;
52102;SDS011;38101;53.126;6.878;2023-05-14T04:27:13;9.35;;;7.28;;
52102;SDS011;38101;53.126;6.878;2023-05-14T04:29:44;9.15;;;5.55;;
52102;SDS011;38101;53.126;6.878;2023-05-14T04:32:10;8.82;;;5.82;;
52102;SDS011;38101;53.126;6.878;2023-05-14T04:34:36;8.82;;;5.38;;
52102;SDS011;38101;53.126;6.878;2023-05-14T04:37:02;11.50;;;6.80;;
52102;SDS011;38101;53.126;6.878;2023-05-14T04:39:28;8.73;;;6.53;;
52102;SDS011;38101;53.126;6.878;2023-05-14T04:41:54;11.65;;;7.22;;
52102;SDS011;38101;53.126;6.878;2023-05-14T04:44:20;12.32;;;7.55;;
52102;SDS011;38101;53.126;6.878;2023-05-14T04:46:45;11.45;;;7.85;;
52102;SDS011;38101;53.126;6.878;2023-05-14T04:49:11;11.20;;;7.65;;
52102;SDS011;38101;53.126;6.878;2023-05-14T04:51:37;10.50;;;7.13;;
52102;SDS011;38101;53.126;6.878;2023-05-14T04:54:03;11.73;;;7.72;;
52102;SDS011;38101;53.126;6.878;2023-05-14T04:56:28;13.10;;;7.78;;
52102;SDS011;38101;53.126;6.878;2023-05-14T04:58:54;10.15;;;7.85;;
52102;SDS011;38101;53.126;6.878;2023-05-14T05:01:20;11.18;;;7.88;;
52102;SDS011;38101;53.126;6.878;2023-05-14T05:03:47;12.15;;;7.65;;
52102;SDS011;38101;53.126;6.878;2023-05-14T05:06:13;12.35;;;8.52;;
52102;SDS011;38101;53.126;6.878;2023-05-14T05:08:38;9.85;;;7.22;;
52102;SDS011;38101;53.126;6.878;2023-05-14T05:11:05;9.43;;;7.60;;
52102;SDS011;38101;53.126;6.878;2023-05-14T05:13:31;10.93;;;7.32;;
52102;SDS011;38101;53.126;6.878;2023-05-14T05:15:57;10.10;;;7.72;;
52102;SDS011;38101;53.126;6.878;2023-05-14T05:18:22;11.45;;;7.25;;
52102;SDS011;38101;53.126;6.878;2023-05-14T05:20:48;9.32;;;6.88;;
52102;SDS011;38101;53.126;6.878;2023-05-14T05:23:14;11.05;;;7.25;;
52102;SDS011;38101;53.126;6.878;2023-05-14T05:25:40;11.38;;;6.90;;
52102;SDS011;38101;53.126;6.878;2023-05-14T05:28:06;11.23;;;7.28;;
52102;SDS011;38101;53.126;6.878;2023-05-14T05:30:32;10.20;;;6.45;;
52102;SDS011;38101;53.126;6.878;2023-05-14T05:32:57;11.45;;;7.13;;
52102;SDS011;38101;53.126;6.878;2023-05-14T05:35:23;12.48;;;7.20;;
52102;SDS011;38101;53.126;6.878;2023-05-14T05:37:49;11.57;;;6.88;;
52102;SDS011;38101;53.126;6.878;2023-05-14T05:40:15;10.13;;;6.85;;
52102;SDS011;38101;53.126;6.878;2023-05-14T05:42:41;11.65;;;7.20;;
52102;SDS011;38101;53.126;6.878;2023-05-14T05:45:07;10.88;;;7.38;;
52102;SDS011;38101;53.126;6.878;2023-05-14T05:47:33;10.95;;;7.68;;
52102;SDS011;38101;53.126;6.878;2023-05-14T05:49:58;13.10;;;6.93;;
52102;SDS011;38101;53.126;6.878;2023-05-14T05:52:24;11.60;;;7.32;;
52102;SDS011;38101;53.126;6.878;2023-05-14T05:54:50;10.93;;;7.35;;
52102;SDS011;38101;53.126;6.878;2023-05-14T05:57:16;10.45;;;7.30;;
52102;SDS011;38101;53.126;6.878;2023-05-14T05:59:41;10.88;;;7.22;;
52102;SDS011;38101;53.126;6.878;2023-05-14T06:02:07;11.05;;;7.57;;
52102;SDS011;38101;53.126;6.878;2023-05-14T06:04:33;12.25;;;7.50;;
52102;SDS011;38101;53.126;6.878;2023-05-14T06:06:58;9.80;;;7.50;;
52102;SDS011;38101;53.126;6.878;2023-05-14T06:09:24;11.68;;;7.18;;
52102;SDS011;38101;53.126;6.878;2023-05-14T06:11:50;14.02;;;8.35;;
52102;SDS011;38101;53.126;6.878;2023-05-14T06:14:15;14.30;;;7.68;;
52102;SDS011;38101;53.126;6.878;2023-05-14T06:16:41;9.02;;;7.28;;
52102;SDS011;38101;53.126;6.878;2023-05-14T06:19:07;11.60;;;8.30;;
52102;SDS011;38101;53.126;6.878;2023-05-14T06:21:32;12.23;;;6.97;;
52102;SDS011;38101;53.126;6.878;2023-05-14T06:23:58;9.93;;;7.55;;
52102;SDS011;38101;53.126;6.878;2023-05-14T06:26:24;12.82;;;6.97;;
52102;SDS011;38101;53.126;6.878;2023-05-14T06:28:50;9.05;;;6.95;;
52102;SDS011;38101;53.126;6.878;2023-05-14T06:31:16;10.55;;;7.50;;
52102;SDS011;38101;53.126;6.878;2023-05-14T06:33:42;10.50;;;6.90;;
52102;SDS011;38101;53.126;6.878;2023-05-14T06:36:09;11.55;;;7.40;;
52102;SDS011;38101;53.126;6.878;2023-05-14T06:38:35;10.15;;;6.70;;
52102;SDS011;38101;53.126;6.878;2023-05-14T06:41:01;11.77;;;7.20;;
52102;SDS011;38101;53.126;6.878;2023-05-14T06:43:27;8.55;;;6.43;;
52102;SDS011;38101;53.126;6.878;2023-05-14T06:45:53;12.27;;;7.32;;
52102;SDS011;38101;53.126;6.878;2023-05-14T06:48:19;9.32;;;6.70;;
52102;SDS011;38101;53.126;6.878;2023-05-14T06:50:46;12.18;;;7.47;;
52102;SDS011;38101;53.126;6.878;2023-05-14T06:53:12;12.55;;;6.28;;
52102;SDS011;38101;53.126;6.878;2023-05-14T06:55:38;10.40;;;6.50;;
52102;SDS011;38101;53.126;6.878;2023-05-14T06:58:07;10.10;;;6.40;;
52102;SDS011;38101;53.126;6.878;2023-05-14T07:00:33;8.07;;;6.53;;
52102;SDS011;38101;53.126;6.878;2023-05-14T07:02:59;10.18;;;6.68;;
52102;SDS011;38101;53.126;6.878;2023-05-14T07:05:25;12.70;;;7.15;;
52102;SDS011;38101;53.126;6.878;2023-05-14T07:07:50;13.93;;;6.55;;
52102;SDS011;38101;53.126;6.878;2023-05-14T07:10:16;8.02;;;6.00;;
52102;SDS011;38101;53.126;6.878;2023-05-14T07:12:42;10.15;;;5.80;;
52102;SDS011;38101;53.126;6.878;2023-05-14T07:15:08;9.40;;;6.50;;
52102;SDS011;38101;53.126;6.878;2023-05-14T07:17:34;11.50;;;6.25;;
52102;SDS011;38101;53.126;6.878;2023-05-14T07:20:00;8.95;;;6.20;;
52102;SDS011;38101;53.126;6.878;2023-05-14T07:22:25;11.75;;;6.35;;
52102;SDS011;38101;53.126;6.878;2023-05-14T07:24:51;10.40;;;6.22;;
52102;SDS011;38101;53.126;6.878;2023-05-14T07:27:16;10.10;;;6.47;;
52102;SDS011;38101;53.126;6.878;2023-05-14T07:29:42;9.95;;;6.55;;
52102;SDS011;38101;53.126;6.878;2023-05-14T07:32:08;12.00;;;6.55;;
52102;SDS011;38101;53.126;6.878;2023-05-14T07:34:34;11.10;;;5.75;;
52102;SDS011;38101;53.126;6.878;2023-05-14T07:37:00;12.20;;;6.95;;
52102;SDS011;38101;53.126;6.878;2023-05-14T07:39:26;8.85;;;6.65;;
52102;SDS011;38101;53.126;6.878;2023-05-14T07:41:52;8.50;;;6.15;;
52102;SDS011;38101;53.126;6.878;2023-05-14T07:44:19;9.25;;;6.13;;
52102;SDS011;38101;53.126;6.878;2023-05-14T07:46:45;10.40;;;5.90;;
52102;SDS011;38101;53.126;6.878;2023-05-14T07:49:11;12.48;;;6.88;;
52102;SDS011;38101;53.126;6.878;2023-05-14T07:51:37;8.38;;;6.68;;
52102;SDS011;38101;53.126;6.878;2023-05-14T07:54:02;9.93;;;6.90;;
52102;SDS011;38101;53.126;6.878;2023-05-14T07:56:28;9.45;;;7.28;;
52102;SDS011;38101;53.126;6.878;2023-05-14T07:58:54;9.88;;;7.60;;
52102;SDS011;38101;53.126;6.878;2023-05-14T08:01:20;10.23;;;8.18;;
52102;SDS011;38101;53.126;6.878;2023-05-14T08:03:46;12.77;;;7.55;;
52102;SDS011;38101;53.126;6.878;2023-05-14T08:06:12;12.68;;;7.80;;
52102;SDS011;38101;53.126;6.878;2023-05-14T08:08:38;11.98;;;7.53;;
52102;SDS011;38101;53.126;6.878;2023-05-14T08:11:04;10.63;;;7.63;;
52102;SDS011;38101;53.126;6.878;2023-05-14T08:13:30;11.95;;;8.00;;
52102;SDS011;38101;53.126;6.878;2023-05-14T08:15:56;10.05;;;7.05;;
52102;SDS011;38101;53.126;6.878;2023-05-14T08:18:21;10.65;;;6.97;;
52102;SDS011;38101;53.126;6.878;2023-05-14T08:20:47;12.60;;;7.68;;
52102;SDS011;38101;53.126;6.878;2023-05-14T08:23:13;11.25;;;8.35;;
52102;SDS011;38101;53.126;6.878;2023-05-14T08:25:38;10.18;;;8.75;;
52102;SDS011;38101;53.126;6.878;2023-05-14T08:28:04;11.02;;;9.10;;
52102;SDS011;38101;53.126;6.878;2023-05-14T08:30:30;11.35;;;9.07;;
52102;SDS011;38101;53.126;6.878;2023-05-14T08:32:56;12.98;;;8.52;;
52102;SDS011;38101;53.126;6.878;2023-05-14T08:35:22;10.95;;;8.82;;
52102;SDS011;38101;53.126;6.878;2023-05-14T08:37:48;10.95;;;8.82;;
52102;SDS011;38101;53.126;6.878;2023-05-14T08:40:15;9.88;;;8.20;;
52102;SDS011;38101;53.126;6.878;2023-05-14T08:42:41;9.13;;;8.07;;
52102;SDS011;38101;53.126;6.878;2023-05-14T08:47:41;9.65;;;8.18;;
52102;SDS011;38101;53.126;6.878;2023-05-14T08:50:09;12.85;;;8.57;;
52102;SDS011;38101;53.126;6.878;2023-05-14T08:52:35;9.63;;;8.15;;
52102;SDS011;38101;53.126;6.878;2023-05-14T08:55:02;9.80;;;7.88;;
52102;SDS011;38101;53.126;6.878;2023-05-14T08:57:30;9.23;;;8.23;;
52102;SDS011;38101;53.126;6.878;2023-05-14T08:59:57;10.75;;;8.32;;
52102;SDS011;38101;53.126;6.878;2023-05-14T09:02:23;9.20;;;8.30;;
52102;SDS011;38101;53.126;6.878;2023-05-14T09:04:56;10.30;;;8.15;;
52102;SDS011;38101;53.126;6.878;2023-05-14T09:07:23;12.60;;;7.90;;
52102;SDS011;38101;53.126;6.878;2023-05-14T09:09:50;8.57;;;7.47;;
52102;SDS011;38101;53.126;6.878;2023-05-14T09:12:16;9.52;;;7.90;;
52102;SDS011;38101;53.126;6.878;2023-05-14T09:14:42;11.38;;;7.47;;
52102;SDS011;38101;53.126;6.878;2023-05-14T09:17:09;9.73;;;8.57;;
52102;SDS011;38101;53.126;6.878;2023-05-14T09:19:40;9.20;;;7.28;;
52102;SDS011;38101;53.126;6.878;2023-05-14T09:22:08;8.13;;;6.50;;
52102;SDS011;38101;53.126;6.878;2023-05-14T09:24:38;8.73;;;6.85;;
52102;SDS011;38101;53.126;6.878;2023-05-14T09:27:04;8.35;;;7.22;;
52102;SDS011;38101;53.126;6.878;2023-05-14T09:29:31;7.60;;;6.80;;
52102;SDS011;38101;53.126;6.878;2023-05-14T09:31:57;7.80;;;6.80;;
52102;SDS011;38101;53.126;6.878;2023-05-14T09:34:28;7.45;;;6.25;;
52102;SDS011;38101;53.126;6.878;2023-05-14T09:36:59;7.30;;;6.53;;
52102;SDS011;38101;53.126;6.878;2023-05-14T09:39:29;7.03;;;5.85;;
52102;SDS011;38101;53.126;6.878;2023-05-14T09:41:57;6.57;;;5.90;;
52102;SDS011;38101;53.126;6.878;2023-05-14T09:44:24;6.35;;;5.70;;
52102;SDS011;38101;53.126;6.878;2023-05-14T09:46:50;6.10;;;5.50;;
52102;SDS011;38101;53.126;6.878;2023-05-14T09:49:16;6.97;;;6.28;;
52102;SDS011;38101;53.126;6.878;2023-05-14T09:51:42;7.20;;;6.30;;
52102;SDS011;38101;53.126;6.878;2023-05-14T09:54:08;7.15;;;5.97;;
52102;SDS011;38101;53.126;6.878;2023-05-14T09:56:34;7.65;;;5.63;;
52102;SDS011;38101;53.126;6.878;2023-05-14T09:59:01;6.93;;;5.97;;
52102;SDS011;38101;53.126;6.878;2023-05-14T10:01:28;6.78;;;5.63;;
52102;SDS011;38101;53.126;6.878;2023-05-14T10:03:55;6.15;;;5.10;;
52102;SDS011;38101;53.126;6.878;2023-05-14T10:06:22;5.70;;;4.97;;
52102;SDS011;38101;53.126;6.878;2023-05-14T10:08:58;5.97;;;4.90;;
52102;SDS011;38101;53.126;6.878;2023-05-14T10:11:27;7.95;;;5.72;;
52102;SDS011;38101;53.126;6.878;2023-05-14T10:16:27;5.68;;;5.03;;
52102;SDS011;38101;53.126;6.878;2023-05-14T10:19:00;6.60;;;4.88;;
52102;SDS011;38101;53.126;6.878;2023-05-14T10:21:32;5.50;;;4.78;;
52102;SDS011;38101;53.126;6.878;2023-05-14T10:24:01;5.57;;;4.30;;
52102;SDS011;38101;53.126;6.878;2023-05-14T10:26:29;4.88;;;4.00;;
52102;SDS011;38101;53.126;6.878;2023-05-14T10:28:56;6.68;;;4.95;;
52102;SDS011;38101;53.126;6.878;2023-05-14T10:31:23;9.77;;;5.00;;
52102;SDS011;38101;53.126;6.878;2023-05-14T10:34:29;6.78;;;4.90;;
52102;SDS011;38101;53.126;6.878;2023-05-14T10:39:47;5.38;;;4.57;;
52102;SDS011;38101;53.126;6.878;2023-05-14T10:42:15;7.95;;;4.90;;
52102;SDS011;38101;53.126;6.878;2023-05-14T10:44:44;5.95;;;4.68;;
52102;SDS011;38101;53.126;6.878;2023-05-14T10:47:20;5.60;;;5.10;;
52102;SDS011;38101;53.126;6.878;2023-05-14T10:49:46;5.93;;;4.80;;
52102;SDS011;38101;53.126;6.878;2023-05-14T10:52:16;5.63;;;4.50;;
52102;SDS011;38101;53.126;6.878;2023-05-14T10:54:53;5.53;;;4.72;;
52102;SDS011;38101;53.126;6.878;2023-05-14T10:57:20;7.18;;;4.82;;
52102;SDS011;38101;53.126;6.878;2023-05-14T10:59:48;5.68;;;4.85;;
52102;SDS011;38101;53.126;6.878;2023-05-14T11:02:21;4.90;;;4.40;;
52102;SDS011;38101;53.126;6.878;2023-05-14T11:07:27;5.97;;;4.30;;
52102;SDS011;38101;53.126;6.878;2023-05-14T11:09:58;4.80;;;4.30;;
52102;SDS011;38101;53.126;6.878;2023-05-14T11:12:26;4.90;;;4.30;;
52102;SDS011;38101;53.126;6.878;2023-05-14T11:14:53;5.70;;;4.50;;
52102;SDS011;38101;53.126;6.878;2023-05-14T11:17:23;5.70;;;4.90;;
52102;SDS011;38101;53.126;6.878;2023-05-14T11:19:54;5.82;;;4.60;;
52102;SDS011;38101;53.126;6.878;2023-05-14T11:22:20;4.68;;;4.18;;
52102;SDS011;38101;53.126;6.878;2023-05-14T11:24:46;7.28;;;4.88;;
52102;SDS011;38101;53.126;6.878;2023-05-14T11:27:12;5.55;;;4.30;;
52102;SDS011;38101;53.126;6.878;2023-05-14T11:29:39;7.13;;;4.45;;
52102;SDS011;38101;53.126;6.878;2023-05-14T11:32:09;6.47;;;4.53;;
52102;SDS011;38101;53.126;6.878;2023-05-14T11:34:35;4.72;;;4.00;;
52102;SDS011;38101;53.126;6.878;2023-05-14T11:37:04;4.95;;;4.20;;
52102;SDS011;38101;53.126;6.878;2023-05-14T11:39:34;5.03;;;4.15;;
52102;SDS011;38101;53.126;6.878;2023-05-14T11:42:06;5.45;;;4.30;;
52102;SDS011;38101;53.126;6.878;2023-05-14T11:44:37;4.30;;;3.90;;
52102;SDS011;38101;53.126;6.878;2023-05-14T11:47:03;5.38;;;4.32;;
52102;SDS011;38101;53.126;6.878;2023-05-14T11:49:29;5.78;;;4.05;;
52102;SDS011;38101;53.126;6.878;2023-05-14T11:52:03;4.47;;;4.03;;
52102;SDS011;38101;53.126;6.878;2023-05-14T11:54:30;4.10;;;3.70;;
52102;SDS011;38101;53.126;6.878;2023-05-14T11:56:58;5.40;;;4.05;;
52102;SDS011;38101;53.126;6.878;2023-05-14T11:59:26;5.57;;;4.10;;
52102;SDS011;38101;53.126;6.878;2023-05-14T12:01:53;4.28;;;3.83;;
52102;SDS011;38101;53.126;6.878;2023-05-14T12:04:19;4.35;;;3.65;;
52102;SDS011;38101;53.126;6.878;2023-05-14T12:06:49;6.65;;;4.63;;
52102;SDS011;38101;53.126;6.878;2023-05-14T12:09:16;4.22;;;3.58;;
52102;SDS011;38101;53.126;6.878;2023-05-14T12:11:46;4.53;;;4.05;;
52102;SDS011;38101;53.126;6.878;2023-05-14T12:14:21;4.20;;;3.80;;
52102;SDS011;38101;53.126;6.878;2023-05-14T12:16:48;4.63;;;4.13;;
52102;SDS011;38101;53.126;6.878;2023-05-14T12:19:18;4.70;;;3.78;;
52102;SDS011;38101;53.126;6.878;2023-05-14T12:21:47;4.45;;;3.90;;
52102;SDS011;38101;53.126;6.878;2023-05-14T12:24:16;5.63;;;4.22;;
52102;SDS011;38101;53.126;6.878;2023-05-14T12:26:43;6.28;;;4.00;;
52102;SDS011;38101;53.126;6.878;2023-05-14T12:29:11;4.65;;;3.90;;
52102;SDS011;38101;53.126;6.878;2023-05-14T12:31:43;4.30;;;3.90;;
52102;SDS011;38101;53.126;6.878;2023-05-14T12:34:14;5.88;;;3.97;;
52102;SDS011;38101;53.126;6.878;2023-05-14T12:36:41;4.43;;;3.90;;
52102;SDS011;38101;53.126;6.878;2023-05-14T12:39:07;4.80;;;4.10;;
52102;SDS011;38101;53.126;6.878;2023-05-14T12:41:34;4.53;;;3.67;;
52102;SDS011;38101;53.126;6.878;2023-05-14T12:44:01;4.95;;;4.20;;
52102;SDS011;38101;53.126;6.878;2023-05-14T12:46:28;8.25;;;3.65;;
52102;SDS011;38101;53.126;6.878;2023-05-14T12:48:54;4.93;;;3.85;;
52102;SDS011;38101;53.126;6.878;2023-05-14T12:51:20;4.00;;;3.60;;
52102;SDS011;38101;53.126;6.878;2023-05-14T12:53:46;4.80;;;3.90;;
52102;SDS011;38101;53.126;6.878;2023-05-14T12:56:12;4.22;;;3.83;;
52102;SDS011;38101;53.126;6.878;2023-05-14T12:58:38;4.72;;;3.90;;
52102;SDS011;38101;53.126;6.878;2023-05-14T13:01:04;4.82;;;4.05;;
52102;SDS011;38101;53.126;6.878;2023-05-14T13:03:30;4.38;;;3.53;;
52102;SDS011;38101;53.126;6.878;2023-05-14T13:05:56;5.50;;;4.03;;
52102;SDS011;38101;53.126;6.878;2023-05-14T13:08:22;4.15;;;3.45;;
52102;SDS011;38101;53.126;6.878;2023-05-14T13:10:51;5.40;;;3.90;;
52102;SDS011;38101;53.126;6.878;2023-05-14T13:13:18;5.45;;;3.90;;
52102;SDS011;38101;53.126;6.878;2023-05-14T13:15:44;4.78;;;3.47;;
52102;SDS011;38101;53.126;6.878;2023-05-14T13:18:13;4.63;;;3.67;;
52102;SDS011;38101;53.126;6.878;2023-05-14T13:20:39;4.07;;;3.45;;
52102;SDS011;38101;53.126;6.878;2023-05-14T13:23:04;5.13;;;3.92;;
52102;SDS011;38101;53.126;6.878;2023-05-14T13:25:30;4.47;;;3.65;;
52102;SDS011;38101;53.126;6.878;2023-05-14T13:27:57;4.63;;;3.92;;
52102;SDS011;38101;53.126;6.878;2023-05-14T13:30:22;4.10;;;3.70;;
52102;SDS011;38101;53.126;6.878;2023-05-14T13:32:48;4.07;;;3.35;;
52102;SDS011;38101;53.126;6.878;2023-05-14T13:35:14;5.55;;;3.80;;
52102;SDS011;38101;53.126;6.878;2023-05-14T13:37:41;3.88;;;3.55;;
52102;SDS011;38101;53.126;6.878;2023-05-14T13:40:08;4.18;;;3.53;;
52102;SDS011;38101;53.126;6.878;2023-05-14T13:42:34;4.05;;;3.65;;
52102;SDS011;38101;53.126;6.878;2023-05-14T13:45:01;4.25;;;3.85;;
52102;SDS011;38101;53.126;6.878;2023-05-14T13:47:27;4.05;;;3.65;;
52102;SDS011;38101;53.126;6.878;2023-05-14T13:49:53;4.63;;;4.10;;
52102;SDS011;38101;53.126;6.878;2023-05-14T13:52:19;4.20;;;3.47;;
52102;SDS011;38101;53.126;6.878;2023-05-14T13:54:45;4.45;;;3.85;;
52102;SDS011;38101;53.126;6.878;2023-05-14T13:57:11;4.40;;;3.63;;
52102;SDS011;38101;53.126;6.878;2023-05-14T13:59:37;4.32;;;3.63;;
52102;SDS011;38101;53.126;6.878;2023-05-14T14:02:03;4.40;;;3.75;;
52102;SDS011;38101;53.126;6.878;2023-05-14T14:04:31;5.07;;;3.60;;
52102;SDS011;38101;53.126;6.878;2023-05-14T14:06:57;3.95;;;3.40;;
52102;SDS011;38101;53.126;6.878;2023-05-14T14:09:23;4.40;;;4.00;;
52102;SDS011;38101;53.126;6.878;2023-05-14T14:11:49;5.90;;;3.97;;
52102;SDS011;38101;53.126;6.878;2023-05-14T14:14:16;4.57;;;4.05;;
52102;SDS011;38101;53.126;6.878;2023-05-14T14:16:42;4.80;;;3.90;;
52102;SDS011;38101;53.126;6.878;2023-05-14T14:19:08;4.00;;;3.60;;
52102;SDS011;38101;53.126;6.878;2023-05-14T14:21:34;4.43;;;3.80;;
52102;SDS011;38101;53.126;6.878;2023-05-14T14:24:03;4.95;;;3.90;;
52102;SDS011;38101;53.126;6.878;2023-05-14T14:26:30;4.68;;;3.85;;
52102;SDS011;38101;53.126;6.878;2023-05-14T14:28:55;4.97;;;3.83;;
52102;SDS011;38101;53.126;6.878;2023-05-14T14:31:21;4.45;;;3.90;;
52102;SDS011;38101;53.126;6.878;2023-05-14T14:33:47;4.70;;;4.15;;
52102;SDS011;38101;53.126;6.878;2023-05-14T14:36:13;4.80;;;3.70;;
52102;SDS011;38101;53.126;6.878;2023-05-14T14:38:39;4.40;;;3.78;;
52102;SDS011;38101;53.126;6.878;2023-05-14T14:41:04;4.57;;;3.85;;
52102;SDS011;38101;53.126;6.878;2023-05-14T14:43:34;6.45;;;3.90;;
52102;SDS011;38101;53.126;6.878;2023-05-14T14:46:04;4.53;;;3.92;;
52102;SDS011;38101;53.126;6.878;2023-05-14T14:48:33;5.22;;;3.85;;
52102;SDS011;38101;53.126;6.878;2023-05-14T14:51:03;5.40;;;4.30;;